Aviation Digital Data Service (ADDS)

Output produced by TAFs form (1600 UTC 27 February 2017)
found at http://www.aviationweather.gov/adds/tafs/
 
KALB 271139Z 2712/2812 17010KT P6SM FEW080 
     FM271400 19011G20KT P6SM FEW060 
     FM271700 23015G25KT P6SM FEW100 
     FM272300 21005KT P6SM SKC 
     FM280300 VRB04KT P6SM BKN090 
     FM280800 15004KT P6SM VCSH OVC060